Time;durP1;ratioP1;P1;durP2;ratioP2;P2;SDS_P1;SDS_P2;PMS_P1;PMS_P2;Temp;Humidity;BMP_temperature;BMP_pressure;BME280_temperature;BME280_humidity;BME280_pressure;Samples;Min_cycle;Max_cycle;Signal;HPM_P1;HPM_P2
2022/11/24 00:01:03;;;;;;;18.25;8.98;;;7.80;99.90;;;;;;5048701;28;20406;-78
2022/11/24 00:03:28;;;;;;;19.45;8.73;;;7.80;99.90;;;;;;5047979;28;20660;-79
2022/11/24 00:05:54;;;;;;;22.40;8.65;;;7.70;99.90;;;;;;5045720;28;20072;-79
2022/11/24 00:08:20;;;;;;;20.58;8.63;;;7.70;99.90;;;;;;5027483;28;20059;-78
2022/11/24 00:10:46;;;;;;;21.50;8.95;;;7.70;99.90;;;;;;5030528;28;20053;-78
2022/11/24 00:13:11;;;;;;;21.55;9.07;;;8.00;99.90;;;;;;5015541;28;20095;-78
2022/11/24 00:15:37;;;;;;;23.77;8.90;;;7.70;99.90;;;;;;5014638;28;20071;-79
2022/11/24 00:18:03;;;;;;;20.02;9.02;;;7.60;99.90;;;;;;5028437;28;20140;-77
2022/11/24 00:20:28;;;;;;;20.42;9.18;;;7.60;99.90;;;;;;5040060;28;20053;-79
2022/11/24 00:22:55;;;;;;;17.58;8.70;;;7.80;99.90;;;;;;5045034;28;20036;-78
2022/11/24 00:25:20;;;;;;;24.98;8.95;;;7.70;99.90;;;;;;5032384;28;20198;-78
2022/11/24 00:27:46;;;;;;;19.40;8.57;;;7.90;99.90;;;;;;5046415;28;20124;-79
2022/11/24 00:30:12;;;;;;;20.58;8.90;;;7.60;99.90;;;;;;5031076;28;20474;-78
2022/11/24 00:32:38;;;;;;;20.02;8.90;;;7.60;99.90;;;;;;5032291;28;20049;-78
2022/11/24 00:35:04;;;;;;;21.45;8.95;;;7.50;99.90;;;;;;5032274;28;20037;-78
2022/11/24 00:37:30;;;;;;;20.80;8.80;;;7.50;99.90;;;;;;5047363;28;20534;-79
2022/11/24 00:39:55;;;;;;;22.05;8.45;;;7.50;99.90;;;;;;5015722;28;20128;-78
2022/11/24 00:42:21;;;;;;;23.83;8.20;;;7.50;99.90;;;;;;5047985;28;20045;-78
2022/11/24 00:44:47;;;;;;;24.70;8.73;;;7.50;99.90;;;;;;5015407;28;20045;-79
2022/11/24 00:47:12;;;;;;;22.73;9.02;;;7.40;99.90;;;;;;5047781;28;20036;-78
2022/11/24 00:49:38;;;;;;;21.95;8.00;;;7.40;99.90;;;;;;5015568;28;20048;-78
2022/11/24 00:52:04;;;;;;;20.58;7.88;;;7.40;99.90;;;;;;5048624;28;20037;-78
2022/11/24 00:54:30;;;;;;;21.35;7.90;;;7.40;99.90;;;;;;5048387;28;20033;-78
2022/11/24 00:56:55;;;;;;;20.02;7.82;;;7.40;99.90;;;;;;5030579;28;20044;-78
2022/11/24 00:59:21;;;;;;;20.85;7.90;;;7.70;99.90;;;;;;5030302;28;20049;-78
2022/11/24 01:01:47;;;;;;;19.08;8.15;;;7.30;99.90;;;;;;5029935;28;20045;-78
2022/11/24 01:04:12;;;;;;;20.42;7.95;;;7.70;99.90;;;;;;5013957;28;20036;-77
2022/11/24 01:06:38;;;;;;;20.67;7.20;;;7.30;99.90;;;;;;5051998;28;20036;-78
2022/11/24 01:09:04;;;;;;;21.55;7.93;;;7.30;99.90;;;;;;5047154;28;20490;-78
2022/11/24 01:14:17;;;;;;;21.58;7.03;;;7.20;99.90;;;;;;5037613;28;20063;-77
2022/11/24 01:16:43;;;;;;;23.73;8.32;;;7.20;99.90;;;;;;5047342;28;20151;-78
2022/11/24 01:19:08;;;;;;;22.98;8.27;;;7.20;99.90;;;;;;5044696;28;20048;-78
2022/11/24 01:21:34;;;;;;;19.38;7.15;;;7.20;99.90;;;;;;5047729;28;20043;-78
2022/11/24 01:24:00;;;;;;;24.77;7.55;;;7.20;99.90;;;;;;5046801;28;20449;-78
2022/11/24 01:26:25;;;;;;;19.15;7.43;;;7.20;99.90;;;;;;5023607;28;20064;-78
2022/11/24 01:28:56;;;;;;;19.65;7.05;;;7.20;99.90;;;;;;5029452;28;20094;-78
2022/11/24 01:31:22;;;;;;;19.85;7.07;;;7.20;99.90;;;;;;5029568;28;20079;-78
2022/11/24 01:33:48;;;;;;;19.10;6.82;;;7.10;99.90;;;;;;5025872;28;20045;-78
2022/11/24 01:36:14;;;;;;;20.10;7.07;;;7.50;99.90;;;;;;5031251;28;20572;-78
2022/11/24 01:38:40;;;;;;;19.27;6.40;;;7.10;99.90;;;;;;5048034;28;20138;-79
2022/11/24 01:41:07;;;;;;;21.20;6.25;;;7.10;99.90;;;;;;5030891;28;20041;-78
2022/11/24 01:43:33;;;;;;;16.48;6.28;;;7.10;99.90;;;;;;5030595;28;20079;-78
2022/11/24 01:46:21;;;;;;;24.45;6.85;;;7.20;99.90;;;;;;5050919;28;20041;-78
2022/11/24 01:49:07;;;;;;;22.25;6.28;;;7.10;99.90;;;;;;5050065;28;20033;-77
2022/11/24 01:51:36;;;;;;;23.75;6.35;;;7.10;99.90;;;;;;5043009;28;20049;-77
2022/11/24 01:54:09;;;;;;;23.55;6.05;;;7.10;99.90;;;;;;5049251;28;20041;-78
2022/11/24 01:56:39;;;;;;;21.20;6.53;;;7.10;99.90;;;;;;5048683;28;20127;-78
2022/11/24 01:59:09;;;;;;;20.35;6.43;;;7.10;99.90;;;;;;5050704;28;20045;-78
2022/11/24 02:01:34;;;;;;;24.33;5.50;;;7.10;99.90;;;;;;5050434;28;20076;-78
2022/11/24 02:04:02;;;;;;;22.73;6.13;;;7.10;99.90;;;;;;5016665;28;20080;-79
2022/11/24 02:06:32;;;;;;;20.02;6.13;;;7.10;99.90;;;;;;5054135;28;20037;-78
2022/11/24 02:09:03;;;;;;;23.10;5.82;;;7.20;99.90;;;;;;5033033;28;20041;-78
2022/11/24 02:11:35;;;;;;;23.02;5.57;;;7.20;99.90;;;;;;5036624;28;20387;-79
2022/11/24 02:14:00;;;;;;;17.85;5.70;;;7.20;99.90;;;;;;5051740;28;20039;-78
2022/11/24 02:16:27;;;;;;;22.88;6.05;;;7.40;99.90;;;;;;5049400;28;20421;-78
2022/11/24 02:18:53;;;;;;;22.02;5.60;;;7.30;99.90;;;;;;5034738;28;20520;-78
2022/11/24 02:21:19;;;;;;;22.38;5.50;;;7.30;99.90;;;;;;5033543;28;20132;-78
2022/11/24 02:24:09;;;;;;;20.75;5.47;;;7.30;99.90;;;;;;5052583;28;20052;-78
2022/11/24 02:26:47;;;;;;;21.88;5.07;;;7.40;99.90;;;;;;5048211;28;20525;-78
2022/11/24 02:29:13;;;;;;;19.25;5.22;;;7.40;99.90;;;;;;5051474;28;20045;-78
2022/11/24 02:31:44;;;;;;;18.02;5.03;;;7.40;99.90;;;;;;5034529;28;20124;-78
2022/11/24 02:34:10;;;;;;;21.23;5.50;;;7.50;99.90;;;;;;5033691;28;20040;-79
2022/11/24 02:36:36;;;;;;;22.90;5.50;;;7.40;99.90;;;;;;5032636;28;20033;-78
2022/11/24 02:39:01;;;;;;;21.58;5.03;;;7.50;99.90;;;;;;5031743;28;20513;-78
2022/11/24 02:41:28;;;;;;;22.65;4.93;;;7.50;99.90;;;;;;5017520;28;20041;-78
2022/11/24 02:43:57;;;;;;;21.63;4.90;;;7.50;99.90;;;;;;5032543;28;20043;-78
2022/11/24 02:46:23;;;;;;;23.05;5.88;;;7.50;99.90;;;;;;5050910;28;20494;-78
2022/11/24 02:48:49;;;;;;;21.42;4.75;;;7.50;99.90;;;;;;5030988;28;20056;-78
2022/11/24 02:51:15;;;;;;;21.63;4.90;;;7.60;99.90;;;;;;5032693;28;20029;-78
2022/11/24 02:53:40;;;;;;;19.08;4.30;;;7.50;99.90;;;;;;5049458;28;20165;-79
2022/11/24 02:56:06;;;;;;;20.00;4.60;;;7.80;99.90;;;;;;5032464;28;20060;-78
2022/11/24 02:58:32;;;;;;;18.20;4.63;;;7.40;99.90;;;;;;5014612;28;20172;-78
2022/11/24 03:00:58;;;;;;;18.60;4.70;;;7.40;99.90;;;;;;5047470;28;20048;-78
2022/11/24 03:03:24;;;;;;;20.85;4.72;;;7.40;99.90;;;;;;5048132;28;20044;-79
2022/11/24 03:05:50;;;;;;;20.88;4.50;;;7.30;99.90;;;;;;5052712;28;20032;-78
2022/11/24 03:08:16;;;;;;;23.23;5.00;;;7.40;99.90;;;;;;5047895;28;20514;-78
2022/11/24 03:10:42;;;;;;;21.48;4.63;;;7.40;99.90;;;;;;5031232;28;20055;-78
2022/11/24 03:13:08;;;;;;;22.38;4.63;;;7.30;99.90;;;;;;5049208;28;20041;-78
2022/11/24 03:15:34;;;;;;;21.30;4.75;;;7.30;99.90;;;;;;5052679;28;20033;-78
2022/11/24 03:17:59;;;;;;;18.85;4.25;;;7.30;99.90;;;;;;5049114;28;20449;-78
2022/11/24 03:20:25;;;;;;;23.52;5.70;;;7.30;99.90;;;;;;5029375;28;20043;-78
2022/11/24 03:22:51;;;;;;;16.40;4.50;;;7.40;99.90;;;;;;5032748;28;20123;-78
2022/11/24 03:25:17;;;;;;;18.73;4.60;;;7.30;99.90;;;;;;5049618;28;20053;-79
2022/11/24 03:27:43;;;;;;;20.48;4.90;;;7.60;99.90;;;;;;5016349;28;20048;-78
2022/11/24 03:30:10;;;;;;;21.05;4.55;;;7.30;99.90;;;;;;5031989;28;20544;-78
2022/11/24 03:32:35;;;;;;;22.52;4.93;;;7.30;99.90;;;;;;5047726;28;20389;-78
2022/11/24 03:35:01;;;;;;;23.23;5.40;;;7.30;99.90;;;;;;5032744;28;20522;-78
2022/11/24 03:37:27;;;;;;;23.23;4.57;;;7.30;99.90;;;;;;5049401;28;20051;-78
2022/11/24 03:39:52;;;;;;;21.48;4.95;;;8.00;99.90;;;;;;5015336;28;20048;-79
2022/11/24 03:42:18;;;;;;;21.48;4.57;;;7.30;99.90;;;;;;5032769;28;20049;-78
2022/11/24 03:44:44;;;;;;;22.45;5.10;;;7.20;99.90;;;;;;5015403;28;20045;-78
2022/11/24 03:47:11;;;;;;;20.20;4.80;;;7.30;99.90;;;;;;5048883;28;20086;-78
2022/11/24 03:49:37;;;;;;;20.40;4.65;;;7.30;99.90;;;;;;5047609;28;20049;-77
2022/11/24 03:52:03;;;;;;;23.65;5.07;;;7.30;99.90;;;;;;5032643;28;20083;-78
2022/11/24 03:54:29;;;;;;;21.88;4.78;;;7.30;99.90;;;;;;5047982;28;20494;-79
2022/11/24 03:56:55;;;;;;;18.08;4.60;;;7.40;99.90;;;;;;5051964;28;20041;-78
2022/11/24 03:59:20;;;;;;;20.77;5.22;;;7.30;99.90;;;;;;5031397;28;20098;-78
2022/11/24 04:01:46;;;;;;;24.65;5.00;;;7.30;99.90;;;;;;5046887;28;20044;-78
2022/11/24 04:04:12;;;;;;;20.17;4.20;;;7.30;99.90;;;;;;5047041;28;20124;-78
2022/11/24 04:06:39;;;;;;;21.05;4.25;;;7.40;99.90;;;;;;5050503;28;20041;-78
2022/11/24 04:09:05;;;;;;;19.85;4.35;;;7.20;99.90;;;;;;5031623;28;20513;-78
2022/11/24 04:14:15;;;;;;;21.10;4.78;;;7.30;99.90;;;;;;5034481;28;20064;-78
2022/11/24 04:16:41;;;;;;;21.27;4.65;;;7.20;99.90;;;;;;5030287;28;20445;-78
2022/11/24 04:19:06;;;;;;;20.20;4.45;;;7.20;99.90;;;;;;5051745;28;20047;-78
2022/11/24 04:21:32;;;;;;;17.48;4.30;;;7.10;99.90;;;;;;5048921;28;20081;-78
2022/11/24 04:23:58;;;;;;;22.40;4.57;;;7.10;99.90;;;;;;5046751;28;20242;-79
2022/11/24 04:26:24;;;;;;;20.90;4.32;;;7.10;99.90;;;;;;5051397;28;20098;-78
2022/11/24 04:28:49;;;;;;;19.23;4.82;;;7.90;99.90;;;;;;5035548;28;20487;-78
2022/11/24 04:31:15;;;;;;;21.70;4.47;;;7.10;99.90;;;;;;5027348;28;20135;-78
2022/11/24 04:33:41;;;;;;;19.50;4.00;;;7.10;99.90;;;;;;5012654;28;20112;-78
2022/11/24 04:36:07;;;;;;;24.65;4.85;;;7.10;99.90;;;;;;5047993;28;21292;-78
2022/11/24 04:38:33;;;;;;;18.65;4.15;;;7.10;99.90;;;;;;5014858;28;20556;-78
2022/11/24 04:41:02;;;;;;;19.33;5.20;;;8.40;99.90;;;;;;5048113;28;20037;-77
2022/11/24 04:43:29;;;;;;;16.67;4.00;;;7.00;99.90;;;;;;5030530;28;20041;-79
2022/11/24 04:45:58;;;;;;;18.95;4.25;;;7.00;99.90;;;;;;5031274;28;20077;-78
2022/11/24 04:48:23;;;;;;;20.35;4.45;;;8.20;99.90;;;;;;5048415;28;20060;-77
2022/11/24 04:50:49;;;;;;;16.90;4.00;;;7.00;99.90;;;;;;5031358;28;20506;-78
2022/11/24 04:53:15;;;;;;;19.50;3.88;;;7.30;99.90;;;;;;5029605;28;20198;-78
2022/11/24 04:55:41;;;;;;;20.90;4.30;;;7.70;99.90;;;;;;5080753;28;20460;-79
2022/11/24 04:58:09;;;;;;;17.83;4.15;;;7.50;99.90;;;;;;5063750;28;20048;-78
2022/11/24 05:00:35;;;;;;;21.35;3.75;;;7.00;99.90;;;;;;5050772;28;20045;-78
2022/11/24 05:03:01;;;;;;;18.08;3.85;;;7.00;99.90;;;;;;5048369;28;20045;-78
2022/11/24 05:05:26;;;;;;;18.80;3.90;;;6.90;99.90;;;;;;5015334;28;20060;-77
2022/11/24 05:07:52;;;;;;;19.05;4.30;;;6.90;99.90;;;;;;5046097;28;20124;-77
2022/11/24 05:10:36;;;;;;;19.00;4.03;;;6.90;99.90;;;;;;5047972;28;20041;-78
2022/11/24 05:13:05;;;;;;;17.77;3.92;;;7.50;99.90;;;;;;5048025;28;20041;-79
2022/11/24 05:15:36;;;;;;;22.05;4.00;;;6.90;99.90;;;;;;5049786;28;20371;-78
2022/11/24 05:18:14;;;;;;;19.65;4.15;;;6.80;99.90;;;;;;5050983;28;20041;-78
2022/11/24 05:20:40;;;;;;;19.73;3.90;;;6.80;99.90;;;;;;5034135;28;20041;-79
2022/11/24 05:23:07;;;;;;;20.65;3.97;;;6.80;99.90;;;;;;5052303;28;20125;-78
2022/11/24 05:25:34;;;;;;;20.73;4.28;;;6.80;99.90;;;;;;5033755;28;20056;-78
2022/11/24 05:28:08;;;;;;;22.05;4.38;;;6.80;99.90;;;;;;5050916;28;20083;-77
2022/11/24 05:30:37;;;;;;;15.73;3.65;;;7.50;99.90;;;;;;5034838;28;20121;-78
2022/11/24 05:33:07;;;;;;;18.65;4.00;;;6.80;99.90;;;;;;5051212;28;20505;-78
2022/11/24 05:35:35;;;;;;;19.75;4.25;;;6.80;99.90;;;;;;5051672;28;20093;-78
2022/11/24 05:38:01;;;;;;;21.58;4.43;;;6.80;99.90;;;;;;5083756;28;20075;-77
2022/11/24 05:40:27;;;;;;;15.88;4.03;;;6.80;99.90;;;;;;5034574;28;20072;-78
2022/11/24 05:42:53;;;;;;;18.33;3.83;;;6.90;99.90;;;;;;5033249;28;20083;-77
2022/11/24 05:45:20;;;;;;;19.90;3.97;;;7.80;99.90;;;;;;5031192;28;20048;-77
2022/11/24 05:47:48;;;;;;;15.45;4.00;;;7.70;99.90;;;;;;5017082;28;20071;-78
2022/11/24 05:50:16;;;;;;;17.27;3.90;;;6.80;99.90;;;;;;5049804;28;20045;-78
2022/11/24 05:52:42;;;;;;;17.10;3.85;;;6.90;99.90;;;;;;5051852;28;20108;-79
2022/11/24 05:55:08;;;;;;;15.85;3.53;;;7.80;99.90;;;;;;5051354;28;20116;-77
2022/11/24 05:57:34;;;;;;;21.20;3.80;;;6.80;99.90;;;;;;5049098;28;20041;-77
2022/11/24 06:00:00;;;;;;;21.27;4.22;;;7.40;99.90;;;;;;5050379;28;20037;-78
2022/11/24 06:02:26;;;;;;;19.60;3.80;;;6.80;99.90;;;;;;5047950;28;20041;-77
2022/11/24 06:04:52;;;;;;;25.10;4.13;;;6.80;99.90;;;;;;5048314;28;20406;-77
2022/11/24 06:07:18;;;;;;;19.83;3.50;;;6.80;99.90;;;;;;5041038;28;20091;-79
2022/11/24 06:09:44;;;;;;;17.42;4.13;;;6.80;99.90;;;;;;5025096;28;20053;-78
2022/11/24 06:12:11;;;;;;;19.75;3.78;;;7.00;99.90;;;;;;5058550;28;20395;-77
2022/11/24 06:14:37;;;;;;;18.90;4.05;;;6.80;99.90;;;;;;5039603;28;20045;-77
2022/11/24 06:17:03;;;;;;;15.75;3.97;;;6.80;99.90;;;;;;5040544;28;20033;-77
2022/11/24 06:19:29;;;;;;;20.30;3.47;;;6.70;99.90;;;;;;5028760;28;20040;-77
2022/11/24 06:21:54;;;;;;;16.55;3.72;;;6.70;99.90;;;;;;5043117;28;20041;-78
2022/11/24 06:24:20;;;;;;;16.25;3.70;;;6.70;99.90;;;;;;5044092;28;20127;-76
2022/11/24 06:26:46;;;;;;;21.00;3.78;;;6.70;99.90;;;;;;5043701;28;20053;-77
2022/11/24 06:29:12;;;;;;;18.75;3.55;;;6.90;99.90;;;;;;5040653;28;20041;-77
2022/11/24 06:31:37;;;;;;;12.40;3.10;;;6.70;99.90;;;;;;5026518;28;20491;-76
2022/11/24 06:34:09;;;;;;;19.65;3.63;;;6.70;99.90;;;;;;5025695;28;20116;-77
2022/11/24 06:36:36;;;;;;;19.00;3.73;;;7.50;99.90;;;;;;5040811;28;20040;-78
2022/11/24 06:39:03;;;;;;;20.33;4.07;;;6.70;99.90;;;;;;5044595;28;20521;-78
2022/11/24 06:41:29;;;;;;;17.38;3.55;;;6.70;99.90;;;;;;5024671;28;20043;-79
2022/11/24 06:43:55;;;;;;;15.60;3.28;;;6.70;99.90;;;;;;5040498;28;20528;-79
2022/11/24 06:46:21;;;;;;;18.52;3.67;;;6.70;99.90;;;;;;5046049;28;20090;-78
2022/11/24 06:48:50;;;;;;;16.02;3.63;;;6.70;99.90;;;;;;5033375;28;20045;-80
2022/11/24 06:51:17;;;;;;;19.00;3.70;;;7.70;99.90;;;;;;5049078;28;20041;-77
2022/11/24 06:53:43;;;;;;;16.10;3.13;;;7.20;99.90;;;;;;5033255;28;20048;-78
2022/11/24 06:56:11;;;;;;;18.35;3.92;;;7.50;99.90;;;;;;5048850;28;20041;-78
2022/11/24 06:58:42;;;;;;;21.30;3.92;;;6.80;99.90;;;;;;5049960;28;20044;-78
2022/11/24 07:01:08;;;;;;;13.02;3.30;;;6.80;99.90;;;;;;5049233;28;20049;-79
2022/11/24 07:03:33;;;;;;;16.10;3.80;;;6.70;99.90;;;;;;5049963;28;20143;-78
2022/11/24 07:05:59;;;;;;;15.10;3.15;;;6.80;99.90;;;;;;5050695;28;20486;-78
2022/11/24 07:08:25;;;;;;;19.08;3.83;;;7.20;99.90;;;;;;5047903;28;20091;-77
2022/11/24 07:10:54;;;;;;;18.63;3.83;;;6.80;99.90;;;;;;5016930;28;20060;-76
2022/11/24 07:13:20;;;;;;;18.63;4.30;;;6.80;99.90;;;;;;5047858;28;20115;-76
2022/11/24 07:15:46;;;;;;;20.17;4.10;;;6.80;99.90;;;;;;5051137;28;20043;-78
2022/11/24 07:18:12;;;;;;;16.80;3.60;;;7.60;99.90;;;;;;5046191;28;20056;-78
2022/11/24 07:20:38;;;;;;;19.48;3.53;;;6.90;99.90;;;;;;5042366;28;20036;-78
2022/11/24 07:23:04;;;;;;;19.35;3.88;;;6.90;99.90;;;;;;5046855;28;20037;-77
2022/11/24 07:25:30;;;;;;;18.42;3.95;;;7.60;99.90;;;;;;5047182;28;20037;-78
2022/11/24 07:27:57;;;;;;;15.60;3.85;;;6.80;99.90;;;;;;5027763;28;20046;-77
2022/11/24 07:30:24;;;;;;;18.75;3.45;;;6.80;99.90;;;;;;5048527;28;20498;-78
2022/11/24 07:32:50;;;;;;;17.25;3.72;;;6.80;99.90;;;;;;5044869;28;20044;-78
2022/11/24 07:35:16;;;;;;;16.67;3.50;;;7.20;99.90;;;;;;5047065;28;20037;-79
2022/11/24 07:37:42;;;;;;;22.58;4.30;;;6.80;99.90;;;;;;5044753;28;20033;-79
2022/11/24 07:40:09;;;;;;;21.33;4.32;;;6.80;99.90;;;;;;5043367;28;20150;-78
2022/11/24 07:42:35;;;;;;;19.75;3.67;;;6.80;99.90;;;;;;5044734;28;20410;-78
2022/11/24 07:45:01;;;;;;;18.58;4.00;;;7.50;99.90;;;;;;5044736;28;20048;-79
2022/11/24 07:47:27;;;;;;;20.13;4.25;;;6.70;99.90;;;;;;5048703;28;20110;-80
2022/11/24 07:49:52;;;;;;;16.77;4.60;;;7.30;99.90;;;;;;5032668;28;20379;-79
2022/11/24 07:52:18;;;;;;;19.13;3.80;;;7.80;99.90;;;;;;5046256;28;20032;-78
2022/11/24 07:54:44;;;;;;;17.00;4.60;;;6.70;99.90;;;;;;5030381;28;20043;-78
2022/11/24 07:57:09;;;;;;;16.85;3.90;;;7.70;99.90;;;;;;5047881;28;20041;-77
2022/11/24 07:59:35;;;;;;;23.42;4.40;;;6.70;99.90;;;;;;5029121;28;20128;-79
2022/11/24 08:02:01;;;;;;;21.05;4.53;;;7.60;99.90;;;;;;5039683;28;20414;-79
2022/11/24 08:04:27;;;;;;;18.08;4.53;;;7.00;99.90;;;;;;5076306;28;20393;-78
2022/11/24 08:06:52;;;;;;;16.00;4.03;;;6.80;99.90;;;;;;5029064;28;20234;-78
2022/11/24 08:09:49;;;;;;;17.58;4.55;;;6.80;99.90;;;;;;5132581;27;1293222;-78
2022/11/24 08:12:16;;;;;;;19.98;4.57;;;6.80;99.90;;;;;;5131139;27;20047;-78
2022/11/24 08:14:42;;;;;;;17.80;4.45;;;6.80;99.90;;;;;;5107803;27;20105;-77
2022/11/24 08:17:13;;;;;;;19.98;4.43;;;6.90;99.90;;;;;;5136260;27;20118;-77
2022/11/24 08:19:38;;;;;;;17.02;4.53;;;6.90;99.90;;;;;;5096070;27;20055;-78
2022/11/24 08:22:04;;;;;;;17.55;4.65;;;7.40;99.90;;;;;;5106157;27;20105;-78
2022/11/24 08:24:30;;;;;;;15.35;4.25;;;7.00;99.90;;;;;;5112054;27;20043;-78
2022/11/24 08:26:56;;;;;;;20.85;4.68;;;7.10;99.90;;;;;;5124286;27;20070;-78
2022/11/24 08:29:22;;;;;;;20.80;5.00;;;7.10;99.90;;;;;;5113543;27;20126;-77
2022/11/24 08:31:47;;;;;;;19.58;4.72;;;7.20;99.90;;;;;;5112292;27;20218;-77
2022/11/24 08:34:16;;;;;;;23.00;4.63;;;8.80;99.90;;;;;;5099170;27;20118;-77
2022/11/24 08:36:42;;;;;;;13.38;4.25;;;7.20;99.90;;;;;;5099685;27;20126;-78
2022/11/24 08:39:10;;;;;;;17.02;4.18;;;8.00;99.90;;;;;;5082869;27;20042;-78
2022/11/24 08:41:36;;;;;;;19.90;4.90;;;7.90;99.90;;;;;;5106614;27;20070;-77
2022/11/24 08:44:02;;;;;;;14.93;5.13;;;7.40;99.90;;;;;;5097477;27;20488;-78
2022/11/24 08:46:28;;;;;;;24.38;6.03;;;7.50;99.90;;;;;;5107485;27;21139;-79
2022/11/24 08:48:54;;;;;;;22.40;5.03;;;7.80;99.90;;;;;;5109325;27;20043;-77
2022/11/24 08:51:24;;;;;;;14.15;5.25;;;7.60;99.90;;;;;;5102528;27;20036;-77
2022/11/24 08:53:54;;;;;;;20.65;4.95;;;7.60;99.90;;;;;;5125952;27;20552;-79
2022/11/24 08:56:20;;;;;;;16.52;4.93;;;7.80;99.90;;;;;;5128098;27;20039;-78
2022/11/24 08:58:46;;;;;;;15.48;4.65;;;8.20;99.90;;;;;;5126247;27;20088;-78
2022/11/24 09:01:14;;;;;;;17.90;4.97;;;8.00;99.90;;;;;;5127278;27;20035;-77
2022/11/24 09:03:41;;;;;;;18.92;5.25;;;8.10;99.90;;;;;;5127089;27;20414;-78
2022/11/24 09:06:10;;;;;;;16.55;4.80;;;8.20;99.90;;;;;;5093177;27;20043;-78
2022/11/24 09:08:37;;;;;;;16.55;5.00;;;8.20;99.90;;;;;;5109922;27;20047;-77
2022/11/24 09:11:11;;;;;;;17.38;4.40;;;8.30;99.90;;;;;;5128248;27;20431;-77
2022/11/24 09:13:37;;;;;;;16.00;4.72;;;8.40;99.90;;;;;;5126464;27;20412;-77
2022/11/24 09:16:15;;;;;;;15.73;4.28;;;8.30;99.90;;;;;;5124446;27;20295;-77
2022/11/24 09:18:45;;;;;;;15.30;4.30;;;8.40;99.90;;;;;;5105549;27;20575;-77
2022/11/24 09:21:19;;;;;;;15.60;4.72;;;8.40;99.90;;;;;;5116278;27;20045;-78
2022/11/24 09:23:47;;;;;;;18.52;4.53;;;;;;;;;;5091018;27;20100;-77
2022/11/24 09:26:34;;;;;;;13.70;4.40;;;8.60;99.90;;;;;;5120720;27;20749;-77
2022/11/24 09:29:01;;;;;;;16.65;4.88;;;8.60;99.90;;;;;;5085111;27;20054;-77
2022/11/24 09:31:30;;;;;;;17.42;4.65;;;8.70;99.90;;;;;;5088213;27;20027;-78
2022/11/24 09:33:56;;;;;;;16.15;4.10;;;8.70;99.90;;;;;;5098972;27;20114;-78
2022/11/24 09:36:23;;;;;;;17.05;4.43;;;8.70;99.90;;;;;;5080763;28;20137;-77
2022/11/24 09:38:49;;;;;;;15.43;4.38;;;8.70;99.90;;;;;;5084862;27;20036;-77
2022/11/24 09:41:17;;;;;;;14.80;3.70;;;8.50;99.90;;;;;;5091722;28;20047;-78
2022/11/24 09:44:02;;;;;;;13.20;3.70;;;8.80;99.90;;;;;;5090126;28;20133;-77
2022/11/24 09:47:05;;;;;;;14.60;3.70;;;9.00;99.90;;;;;;5093263;27;20051;-76
2022/11/24 09:49:37;;;;;;;13.52;3.50;;;8.90;99.90;;;;;;5090670;27;20043;-78
2022/11/24 09:52:11;;;;;;;13.57;3.80;;;8.90;99.90;;;;;;5114090;27;20542;-77
2022/11/24 09:54:46;;;;;;;15.63;3.70;;;8.90;99.90;;;;;;5075626;28;20496;-77
2022/11/24 09:57:13;;;;;;;13.23;3.75;;;9.00;99.90;;;;;;5095920;27;20546;-77
2022/11/24 09:59:40;;;;;;;11.80;3.80;;;9.00;99.90;;;;;;5096036;27;20122;-78
2022/11/24 10:02:12;;;;;;;13.38;3.78;;;9.00;99.90;;;;;;5112546;27;20126;-78
2022/11/24 10:04:45;;;;;;;14.05;4.20;;;9.10;99.90;;;;;;5094309;27;20047;-77
2022/11/24 10:07:29;;;;;;;13.20;3.70;;;9.10;99.90;;;;;;5112588;27;20032;-77
2022/11/24 10:10:14;;;;;;;13.32;3.58;;;9.10;99.90;;;;;;5092881;27;20539;-77
2022/11/24 10:12:39;;;;;;;12.15;3.35;;;9.10;99.90;;;;;;5076505;27;20496;-77
2022/11/24 10:15:42;;;;;;;12.57;3.50;;;9.10;99.90;;;;;;5075242;27;20035;-77
2022/11/24 10:18:35;;;;;;;12.48;3.13;;;8.50;99.90;;;;;;5113597;27;20047;-78
2022/11/24 10:21:15;;;;;;;9.90;2.90;;;9.20;99.90;;;;;;5095707;27;20162;-78
2022/11/24 10:24:07;;;;;;;8.82;2.80;;;9.20;99.90;;;;;;5090599;27;20123;-78
2022/11/24 10:26:39;;;;;;;11.02;3.20;;;9.20;99.90;;;;;;5076894;27;20625;-77
2022/11/24 10:29:23;;;;;;;11.50;3.10;;;9.30;99.90;;;;;;5097353;28;20089;-76
2022/11/24 10:31:54;;;;;;;12.30;2.83;;;9.30;99.90;;;;;;5096552;27;20439;-78
2022/11/24 10:34:38;;;;;;;9.45;2.53;;;9.30;99.90;;;;;;5075066;28;20040;-78
2022/11/24 10:37:09;;;;;;;10.27;2.90;;;9.90;99.90;;;;;;5095598;27;20036;-78
2022/11/24 10:40:02;;;;;;;11.45;2.80;;;9.40;99.90;;;;;;5086202;27;20122;-77
2022/11/24 10:42:32;;;;;;;8.70;2.15;;;8.20;99.90;;;;;;5076094;27;20075;-78
2022/11/24 10:45:10;;;;;;;11.57;2.72;;;9.50;99.90;;;;;;5112069;27;20039;-77
2022/11/24 10:47:36;;;;;;;12.25;2.72;;;9.50;99.90;;;;;;5089799;27;20501;-78
2022/11/24 10:50:25;;;;;;;10.15;2.53;;;9.60;99.90;;;;;;5068668;27;20031;-77
2022/11/24 10:53:01;;;;;;;9.45;2.40;;;9.60;99.90;;;;;;5115612;27;20043;-78
2022/11/24 10:55:53;;;;;;;10.30;2.80;;;9.70;99.90;;;;;;5080438;27;20145;-78
2022/11/24 10:58:31;;;;;;;10.63;2.72;;;9.70;99.90;;;;;;5097380;27;20508;-77
2022/11/24 11:01:00;;;;;;;7.57;2.35;;;9.70;99.90;;;;;;5100666;27;20047;-77
2022/11/24 11:03:30;;;;;;;9.82;2.45;;;9.70;99.90;;;;;;5090037;27;20040;-77
2022/11/24 11:06:07;;;;;;;8.75;2.40;;;9.60;99.90;;;;;;5092899;27;20051;-77
2022/11/24 11:08:33;;;;;;;11.02;2.40;;;9.60;99.90;;;;;;5121307;27;20445;-78
2022/11/24 11:11:27;;;;;;;10.95;2.40;;;9.50;99.90;;;;;;5086237;27;20043;-78
2022/11/24 11:13:58;;;;;;;11.75;2.40;;;9.60;99.90;;;;;;5090172;27;20032;-77
2022/11/24 11:16:26;;;;;;;8.90;2.25;;;9.60;99.90;;;;;;5114940;27;20597;-77
2022/11/24 11:18:53;;;;;;;11.02;2.33;;;;;;;;;;5089427;27;20104;-77
2022/11/24 11:21:36;;;;;;;14.07;2.50;;;9.80;99.90;;;;;;5075825;27;20042;-78
2022/11/24 11:24:07;;;;;;;;;;;9.90;99.90;;;;;;5086567;28;20039;-77
2022/11/24 11:26:35;;;;;;;8.02;2.10;;;9.80;99.90;;;;;;5097466;27;20514;-77
2022/11/24 11:29:07;;;;;;;8.45;2.10;;;10.00;99.90;;;;;;5120017;27;20049;-79
2022/11/24 11:31:35;;;;;;;10.75;2.50;;;10.50;99.90;;;;;;5118002;27;20039;-77
2022/11/24 11:34:13;;;;;;;8.93;2.60;;;10.00;99.90;;;;;;5091150;28;20050;-78
2022/11/24 11:36:43;;;;;;;11.10;2.53;;;10.10;99.90;;;;;;5087716;28;20060;-77
2022/11/24 11:39:37;;;;;;;10.73;2.53;;;10.10;99.90;;;;;;5098753;27;20209;-78
2022/11/24 11:42:17;;;;;;;10.38;2.20;;;10.20;99.90;;;;;;5113406;27;20412;-77
2022/11/24 11:44:49;;;;;;;9.88;2.55;;;10.20;99.90;;;;;;5093627;28;20078;-77
2022/11/24 11:47:25;;;;;;;10.73;2.72;;;10.20;99.90;;;;;;5090640;27;20043;-78
2022/11/24 11:49:52;;;;;;;8.32;2.30;;;10.30;99.90;;;;;;5121035;27;20042;-78
2022/11/24 11:52:39;;;;;;;10.45;2.42;;;10.30;99.90;;;;;;5084812;27;20028;-78
2022/11/24 11:55:23;;;;;;;10.93;2.90;;;10.40;99.90;;;;;;5079607;27;20122;-77
2022/11/24 11:57:57;;;;;;;9.82;2.70;;;10.40;99.90;;;;;;5073283;28;20431;-77
2022/11/24 12:00:22;;;;;;;15.48;3.55;;;10.40;99.90;;;;;;5091385;28;20627;-76
2022/11/24 12:03:12;;;;;;;11.30;2.50;;;10.50;99.90;;;;;;5094379;27;20043;-78
2022/11/24 12:06:04;;;;;;;13.95;3.20;;;10.50;99.90;;;;;;5080085;28;20043;-77
2022/11/24 12:08:37;;;;;;;10.38;2.50;;;10.50;99.90;;;;;;5111166;28;20079;-78
2022/11/24 12:11:21;;;;;;;13.57;3.30;;;10.50;99.90;;;;;;5110478;28;20047;-78
2022/11/24 12:13:57;;;;;;;12.48;3.20;;;10.50;99.90;;;;;;5130211;28;20115;-77
2022/11/24 12:16:41;;;;;;;10.45;2.70;;;10.60;99.90;;;;;;5080289;28;20080;-77
2022/11/24 12:19:26;;;;;;;11.18;2.97;;;10.60;99.90;;;;;;5113885;28;20031;-77
2022/11/24 12:22:15;;;;;;;13.73;3.10;;;10.80;99.90;;;;;;5120699;28;20541;-77
2022/11/24 12:25:00;;;;;;;11.05;2.88;;;10.60;99.90;;;;;;5109710;28;20079;-77
2022/11/24 12:27:55;;;;;;;10.48;2.72;;;10.70;99.90;;;;;;5094872;28;20128;-77
2022/11/24 12:30:21;;;;;;;9.88;2.67;;;10.70;99.90;;;;;;5090754;28;20051;-78
2022/11/24 12:33:08;;;;;;;10.98;2.53;;;10.70;99.90;;;;;;5083755;28;20036;-78
2022/11/24 12:35:47;;;;;;;9.82;2.55;;;10.70;99.90;;;;;;5109632;28;20067;-77
2022/11/24 12:38:50;;;;;;;11.77;2.95;;;10.80;99.90;;;;;;5081491;28;20047;-78
2022/11/24 12:41:34;;;;;;;9.30;2.58;;;10.80;99.90;;;;;;5086708;28;20050;-77
2022/11/24 12:44:09;;;;;;;12.50;2.97;;;10.90;99.90;;;;;;5079403;28;20122;-77
2022/11/24 12:46:46;;;;;;;14.73;2.85;;;10.90;99.90;;;;;;5126542;28;20043;-77
2022/11/24 12:49:41;;;;;;;11.95;3.10;;;11.00;99.90;;;;;;5074368;28;20255;-78
2022/11/24 12:52:24;;;;;;;10.48;2.60;;;11.00;99.90;;;;;;5115035;28;20038;-77
2022/11/24 12:54:51;;;;;;;14.73;3.00;;;11.00;99.90;;;;;;5108581;27;21645;-77
2022/11/24 12:57:29;;;;;;;13.45;2.67;;;11.40;99.90;;;;;;5113305;27;20377;-78
2022/11/24 13:00:14;;;;;;;11.80;3.00;;;11.00;99.90;;;;;;5096544;27;20058;-77
2022/11/24 13:03:04;;;;;;;14.18;2.90;;;11.00;99.90;;;;;;5090491;27;20081;-77
2022/11/24 13:05:51;;;;;;;10.98;3.03;;;11.00;99.90;;;;;;5114219;27;20070;-77
2022/11/24 13:08:18;;;;;;;11.73;2.78;;;11.10;99.90;;;;;;5092483;27;20047;-76